sensor_id;sensor_type;location;lat;lon;timestamp;temperature;humidity
22996;DHT22;11664;49.774;8.650;2023-04-12T00:01:04;11.00;99.90
22996;DHT22;11664;49.774;8.650;2023-04-12T00:03:29;11.00;99.90
22996;DHT22;11664;49.774;8.650;2023-04-12T00:05:58;11.00;99.90
22996;DHT22;11664;49.774;8.650;2023-04-12T00:08:28;11.00;99.90
22996;DHT22;11664;49.774;8.650;2023-04-12T00:10:58;11.00;99.90
22996;DHT22;11664;49.774;8.650;2023-04-12T00:13:24;11.00;99.90
22996;DHT22;11664;49.774;8.650;2023-04-12T00:15:50;11.10;99.90
22996;DHT22;11664;49.774;8.650;2023-04-12T00:18:16;11.10;99.90
22996;DHT22;11664;49.774;8.650;2023-04-12T00:20:42;11.10;99.90
22996;DHT22;11664;49.774;8.650;2023-04-12T00:23:08;11.10;99.90
22996;DHT22;11664;49.774;8.650;2023-04-12T00:25:35;11.10;99.90
22996;DHT22;11664;49.774;8.650;2023-04-12T00:28:02;11.10;99.90
22996;DHT22;11664;49.774;8.650;2023-04-12T00:30:28;11.10;99.90
22996;DHT22;11664;49.774;8.650;2023-04-12T00:32:53;11.00;99.90
22996;DHT22;11664;49.774;8.650;2023-04-12T00:35:19;11.00;99.90
22996;DHT22;11664;49.774;8.650;2023-04-12T00:37:44;10.90;99.90
22996;DHT22;11664;49.774;8.650;2023-04-12T00:40:10;10.80;99.90
22996;DHT22;11664;49.774;8.650;2023-04-12T00:42:36;10.70;99.90
22996;DHT22;11664;49.774;8.650;2023-04-12T00:45:02;10.60;99.90
22996;DHT22;11664;49.774;8.650;2023-04-12T00:47:28;10.50;99.90
22996;DHT22;11664;49.774;8.650;2023-04-12T00:49:54;10.40;99.90
22996;DHT22;11664;49.774;8.650;2023-04-12T00:52:20;10.40;99.90
22996;DHT22;11664;49.774;8.650;2023-04-12T00:54:46;10.30;99.90
22996;DHT22;11664;49.774;8.650;2023-04-12T00:57:12;10.30;99.90
22996;DHT22;11664;49.774;8.650;2023-04-12T00:59:38;10.20;99.90
22996;DHT22;11664;49.774;8.650;2023-04-12T01:02:03;10.20;99.90
22996;DHT22;11664;49.774;8.650;2023-04-12T01:04:29;10.10;99.90
22996;DHT22;11664;49.774;8.650;2023-04-12T01:07:13;10.10;99.90
22996;DHT22;11664;49.774;8.650;2023-04-12T01:09:53;10.00;99.90
22996;DHT22;11664;49.774;8.650;2023-04-12T01:12:29;9.90;99.90
22996;DHT22;11664;49.774;8.650;2023-04-12T01:15:07;9.90;99.90
22996;DHT22;11664;49.774;8.650;2023-04-12T01:18:03;9.90;99.90
22996;DHT22;11664;49.774;8.650;2023-04-12T01:20:32;9.80;99.90
22996;DHT22;11664;49.774;8.650;2023-04-12T01:28:31;9.60;99.90
22996;DHT22;11664;49.774;8.650;2023-04-12T01:31:01;9.60;99.90
22996;DHT22;11664;49.774;8.650;2023-04-12T01:33:28;9.50;99.90
22996;DHT22;11664;49.774;8.650;2023-04-12T01:35:58;9.50;99.90
22996;DHT22;11664;49.774;8.650;2023-04-12T01:38:23;9.40;99.90
22996;DHT22;11664;49.774;8.650;2023-04-12T01:40:49;9.40;99.90
22996;DHT22;11664;49.774;8.650;2023-04-12T01:43:15;9.40;99.90
22996;DHT22;11664;49.774;8.650;2023-04-12T01:45:41;9.30;99.90
22996;DHT22;11664;49.774;8.650;2023-04-12T01:48:08;9.20;99.90
22996;DHT22;11664;49.774;8.650;2023-04-12T01:51:04;9.20;99.90
22996;DHT22;11664;49.774;8.650;2023-04-12T01:53:42;9.20;99.90
22996;DHT22;11664;49.774;8.650;2023-04-12T01:56:10;9.20;99.90
22996;DHT22;11664;49.774;8.650;2023-04-12T01:58:38;9.10;99.90
22996;DHT22;11664;49.774;8.650;2023-04-12T02:01:04;9.10;99.90
22996;DHT22;11664;49.774;8.650;2023-04-12T02:03:31;9.10;99.90
22996;DHT22;11664;49.774;8.650;2023-04-12T02:05:58;9.10;99.90
22996;DHT22;11664;49.774;8.650;2023-04-12T02:08:24;9.00;99.90
22996;DHT22;11664;49.774;8.650;2023-04-12T02:10:50;9.00;99.90
22996;DHT22;11664;49.774;8.650;2023-04-12T02:13:16;9.00;99.90
22996;DHT22;11664;49.774;8.650;2023-04-12T02:15:42;9.00;99.90
22996;DHT22;11664;49.774;8.650;2023-04-12T02:18:08;9.00;99.90
22996;DHT22;11664;49.774;8.650;2023-04-12T02:20:34;8.90;99.90
22996;DHT22;11664;49.774;8.650;2023-04-12T02:23:00;8.90;99.90
22996;DHT22;11664;49.774;8.650;2023-04-12T02:25:25;8.90;99.90
22996;DHT22;11664;49.774;8.650;2023-04-12T02:27:51;8.90;99.90
22996;DHT22;11664;49.774;8.650;2023-04-12T02:30:17;8.90;99.90
22996;DHT22;11664;49.774;8.650;2023-04-12T02:32:43;8.90;99.90
22996;DHT22;11664;49.774;8.650;2023-04-12T02:35:11;8.90;99.90
22996;DHT22;11664;49.774;8.650;2023-04-12T02:37:37;8.90;99.90
22996;DHT22;11664;49.774;8.650;2023-04-12T02:40:03;8.80;99.90
22996;DHT22;11664;49.774;8.650;2023-04-12T02:42:31;8.80;99.90
22996;DHT22;11664;49.774;8.650;2023-04-12T02:44:56;8.80;99.90
22996;DHT22;11664;49.774;8.650;2023-04-12T02:47:22;8.80;99.90
22996;DHT22;11664;49.774;8.650;2023-04-12T02:49:52;8.80;99.90
22996;DHT22;11664;49.774;8.650;2023-04-12T02:52:18;8.80;99.90
22996;DHT22;11664;49.774;8.650;2023-04-12T02:54:43;8.80;99.90
22996;DHT22;11664;49.774;8.650;2023-04-12T02:57:09;8.80;99.90
22996;DHT22;11664;49.774;8.650;2023-04-12T02:59:36;8.90;99.90
22996;DHT22;11664;49.774;8.650;2023-04-12T03:02:01;8.80;99.90
22996;DHT22;11664;49.774;8.650;2023-04-12T03:04:27;8.80;99.90
22996;DHT22;11664;49.774;8.650;2023-04-12T03:06:54;8.80;99.90
22996;DHT22;11664;49.774;8.650;2023-04-12T03:09:20;8.80;99.90
22996;DHT22;11664;49.774;8.650;2023-04-12T03:11:46;8.80;99.90
22996;DHT22;11664;49.774;8.650;2023-04-12T03:14:12;8.80;99.90
22996;DHT22;11664;49.774;8.650;2023-04-12T03:16:37;8.70;99.90
22996;DHT22;11664;49.774;8.650;2023-04-12T03:19:03;8.80;99.90
22996;DHT22;11664;49.774;8.650;2023-04-12T03:21:30;8.70;99.90
22996;DHT22;11664;49.774;8.650;2023-04-12T03:24:00;8.70;99.90
22996;DHT22;11664;49.774;8.650;2023-04-12T03:26:26;8.70;99.90
22996;DHT22;11664;49.774;8.650;2023-04-12T03:29:00;8.70;99.90
22996;DHT22;11664;49.774;8.650;2023-04-12T03:31:25;8.70;99.90
22996;DHT22;11664;49.774;8.650;2023-04-12T03:33:52;8.80;99.90
22996;DHT22;11664;49.774;8.650;2023-04-12T03:36:18;8.70;99.90
22996;DHT22;11664;49.774;8.650;2023-04-12T03:38:45;8.70;99.90
22996;DHT22;11664;49.774;8.650;2023-04-12T03:41:11;8.70;99.90
22996;DHT22;11664;49.774;8.650;2023-04-12T03:43:37;8.70;99.90
22996;DHT22;11664;49.774;8.650;2023-04-12T03:46:03;8.70;99.90
22996;DHT22;11664;49.774;8.650;2023-04-12T03:48:29;8.70;99.90
22996;DHT22;11664;49.774;8.650;2023-04-12T03:50:55;8.70;99.90
22996;DHT22;11664;49.774;8.650;2023-04-12T03:53:26;8.70;99.90
22996;DHT22;11664;49.774;8.650;2023-04-12T03:55:52;8.70;99.90
22996;DHT22;11664;49.774;8.650;2023-04-12T03:58:19;8.70;99.90
22996;DHT22;11664;49.774;8.650;2023-04-12T04:00:45;8.70;99.90
22996;DHT22;11664;49.774;8.650;2023-04-12T04:03:11;8.60;99.90
22996;DHT22;11664;49.774;8.650;2023-04-12T04:05:37;8.60;99.90
22996;DHT22;11664;49.774;8.650;2023-04-12T04:08:03;8.70;99.90
22996;DHT22;11664;49.774;8.650;2023-04-12T04:10:31;8.70;99.90
22996;DHT22;11664;49.774;8.650;2023-04-12T04:12:58;8.70;99.90
22996;DHT22;11664;49.774;8.650;2023-04-12T04:15:24;8.70;99.90
22996;DHT22;11664;49.774;8.650;2023-04-12T04:17:51;8.60;99.90
22996;DHT22;11664;49.774;8.650;2023-04-12T04:20:17;8.60;99.90
22996;DHT22;11664;49.774;8.650;2023-04-12T04:22:43;8.70;99.90
22996;DHT22;11664;49.774;8.650;2023-04-12T04:25:12;8.60;99.90
22996;DHT22;11664;49.774;8.650;2023-04-12T04:27:41;8.60;99.90
22996;DHT22;11664;49.774;8.650;2023-04-12T04:30:09;8.60;99.90
22996;DHT22;11664;49.774;8.650;2023-04-12T04:32:36;8.70;99.90
22996;DHT22;11664;49.774;8.650;2023-04-12T04:35:02;8.70;99.90
22996;DHT22;11664;49.774;8.650;2023-04-12T04:37:28;8.60;99.90
22996;DHT22;11664;49.774;8.650;2023-04-12T04:39:59;8.60;99.90
22996;DHT22;11664;49.774;8.650;2023-04-12T04:42:26;8.60;99.90
22996;DHT22;11664;49.774;8.650;2023-04-12T04:44:54;8.60;99.90
22996;DHT22;11664;49.774;8.650;2023-04-12T04:47:24;8.60;99.90
22996;DHT22;11664;49.774;8.650;2023-04-12T04:49:50;8.60;99.90
22996;DHT22;11664;49.774;8.650;2023-04-12T04:52:15;8.60;99.90
22996;DHT22;11664;49.774;8.650;2023-04-12T04:54:42;8.60;99.90
22996;DHT22;11664;49.774;8.650;2023-04-12T04:57:08;8.60;99.90
22996;DHT22;11664;49.774;8.650;2023-04-12T04:59:36;8.60;99.90
22996;DHT22;11664;49.774;8.650;2023-04-12T05:02:02;8.60;99.90
22996;DHT22;11664;49.774;8.650;2023-04-12T05:04:27;8.60;99.90
22996;DHT22;11664;49.774;8.650;2023-04-12T05:06:53;8.60;99.90
22996;DHT22;11664;49.774;8.650;2023-04-12T05:09:19;8.60;99.90
22996;DHT22;11664;49.774;8.650;2023-04-12T05:11:44;8.60;99.90
22996;DHT22;11664;49.774;8.650;2023-04-12T05:14:10;8.60;99.90
22996;DHT22;11664;49.774;8.650;2023-04-12T05:16:36;8.60;99.90
22996;DHT22;11664;49.774;8.650;2023-04-12T05:19:01;8.60;99.90
22996;DHT22;11664;49.774;8.650;2023-04-12T05:21:27;8.60;99.90
22996;DHT22;11664;49.774;8.650;2023-04-12T05:23:53;8.60;99.90
22996;DHT22;11664;49.774;8.650;2023-04-12T05:26:18;8.70;99.90
22996;DHT22;11664;49.774;8.650;2023-04-12T05:28:44;8.60;99.90
22996;DHT22;11664;49.774;8.650;2023-04-12T05:31:10;8.70;99.90
22996;DHT22;11664;49.774;8.650;2023-04-12T05:33:35;8.70;99.90
22996;DHT22;11664;49.774;8.650;2023-04-12T05:36:01;8.60;99.90
22996;DHT22;11664;49.774;8.650;2023-04-12T05:38:27;8.70;99.90
22996;DHT22;11664;49.774;8.650;2023-04-12T05:40:53;8.70;99.90
22996;DHT22;11664;49.774;8.650;2023-04-12T05:43:18;8.70;99.90
22996;DHT22;11664;49.774;8.650;2023-04-12T05:45:44;8.70;99.90
22996;DHT22;11664;49.774;8.650;2023-04-12T05:48:09;8.70;99.90
22996;DHT22;11664;49.774;8.650;2023-04-12T05:50:35;8.60;99.90
22996;DHT22;11664;49.774;8.650;2023-04-12T05:53:00;8.70;99.90
22996;DHT22;11664;49.774;8.650;2023-04-12T05:55:27;8.70;99.90
22996;DHT22;11664;49.774;8.650;2023-04-12T05:57:53;8.60;99.90
22996;DHT22;11664;49.774;8.650;2023-04-12T06:00:19;8.60;99.90
22996;DHT22;11664;49.774;8.650;2023-04-12T06:02:46;8.60;99.90
22996;DHT22;11664;49.774;8.650;2023-04-12T06:05:13;8.60;99.90
22996;DHT22;11664;49.774;8.650;2023-04-12T06:07:39;8.60;99.90
22996;DHT22;11664;49.774;8.650;2023-04-12T06:10:07;8.70;99.90
22996;DHT22;11664;49.774;8.650;2023-04-12T06:12:33;8.70;99.90
22996;DHT22;11664;49.774;8.650;2023-04-12T06:14:58;8.70;99.90
22996;DHT22;11664;49.774;8.650;2023-04-12T06:17:24;8.70;99.90
22996;DHT22;11664;49.774;8.650;2023-04-12T06:19:49;8.80;99.90
22996;DHT22;11664;49.774;8.650;2023-04-12T06:22:15;8.80;99.90
22996;DHT22;11664;49.774;8.650;2023-04-12T06:24:40;8.80;99.90
22996;DHT22;11664;49.774;8.650;2023-04-12T06:27:06;8.90;99.90
22996;DHT22;11664;49.774;8.650;2023-04-12T06:29:32;8.90;99.90
22996;DHT22;11664;49.774;8.650;2023-04-12T06:31:57;8.90;99.90
22996;DHT22;11664;49.774;8.650;2023-04-12T06:34:23;8.90;99.90
22996;DHT22;11664;49.774;8.650;2023-04-12T06:36:48;8.90;99.90
22996;DHT22;11664;49.774;8.650;2023-04-12T06:39:14;9.00;99.90
22996;DHT22;11664;49.774;8.650;2023-04-12T06:41:41;9.00;99.90
22996;DHT22;11664;49.774;8.650;2023-04-12T06:44:12;9.10;99.90
22996;DHT22;11664;49.774;8.650;2023-04-12T06:46:37;9.10;99.90
22996;DHT22;11664;49.774;8.650;2023-04-12T06:49:03;9.10;99.90
22996;DHT22;11664;49.774;8.650;2023-04-12T06:51:28;9.10;99.90
22996;DHT22;11664;49.774;8.650;2023-04-12T06:53:54;9.20;99.90
22996;DHT22;11664;49.774;8.650;2023-04-12T06:56:22;9.20;99.90
22996;DHT22;11664;49.774;8.650;2023-04-12T06:58:47;9.20;99.90
22996;DHT22;11664;49.774;8.650;2023-04-12T07:01:13;9.30;99.90
22996;DHT22;11664;49.774;8.650;2023-04-12T07:03:39;9.30;99.90
22996;DHT22;11664;49.774;8.650;2023-04-12T07:06:05;9.30;99.90
22996;DHT22;11664;49.774;8.650;2023-04-12T07:08:34;9.30;99.90
22996;DHT22;11664;49.774;8.650;2023-04-12T07:11:01;9.40;99.90
22996;DHT22;11664;49.774;8.650;2023-04-12T07:13:27;9.40;99.90
22996;DHT22;11664;49.774;8.650;2023-04-12T07:15:52;9.40;99.90
22996;DHT22;11664;49.774;8.650;2023-04-12T07:18:22;9.50;99.90
22996;DHT22;11664;49.774;8.650;2023-04-12T07:20:48;9.50;99.90
22996;DHT22;11664;49.774;8.650;2023-04-12T07:23:17;9.50;99.90
22996;DHT22;11664;49.774;8.650;2023-04-12T07:25:43;9.60;99.90
22996;DHT22;11664;49.774;8.650;2023-04-12T07:28:09;9.60;99.90
22996;DHT22;11664;49.774;8.650;2023-04-12T07:30:34;9.70;99.90
22996;DHT22;11664;49.774;8.650;2023-04-12T07:33:00;9.70;99.90
22996;DHT22;11664;49.774;8.650;2023-04-12T07:35:30;9.80;99.90
22996;DHT22;11664;49.774;8.650;2023-04-12T07:37:55;9.80;99.90
22996;DHT22;11664;49.774;8.650;2023-04-12T07:40:21;9.90;99.90
22996;DHT22;11664;49.774;8.650;2023-04-12T07:42:46;9.90;99.90
22996;DHT22;11664;49.774;8.650;2023-04-12T07:45:12;9.90;99.90
22996;DHT22;11664;49.774;8.650;2023-04-12T07:47:37;9.90;99.90
22996;DHT22;11664;49.774;8.650;2023-04-12T07:50:03;9.90;99.90
22996;DHT22;11664;49.774;8.650;2023-04-12T07:52:31;9.90;99.90
22996;DHT22;11664;49.774;8.650;2023-04-12T07:54:56;10.00;99.90
22996;DHT22;11664;49.774;8.650;2023-04-12T07:57:22;10.00;99.90
22996;DHT22;11664;49.774;8.650;2023-04-12T07:59:48;10.00;99.90
22996;DHT22;11664;49.774;8.650;2023-04-12T08:02:14;10.00;99.90
22996;DHT22;11664;49.774;8.650;2023-04-12T08:04:49;10.10;99.90
22996;DHT22;11664;49.774;8.650;2023-04-12T08:07:14;10.00;99.90
22996;DHT22;11664;49.774;8.650;2023-04-12T08:09:40;10.00;99.90
22996;DHT22;11664;49.774;8.650;2023-04-12T08:12:06;10.00;99.90
22996;DHT22;11664;49.774;8.650;2023-04-12T08:14:31;10.00;99.90
22996;DHT22;11664;49.774;8.650;2023-04-12T08:16:57;10.00;99.90
22996;DHT22;11664;49.774;8.650;2023-04-12T08:19:23;10.00;99.90
22996;DHT22;11664;49.774;8.650;2023-04-12T08:21:48;10.00;99.90
22996;DHT22;11664;49.774;8.650;2023-04-12T08:24:14;10.00;99.90
22996;DHT22;11664;49.774;8.650;2023-04-12T08:26:39;10.00;99.90
22996;DHT22;11664;49.774;8.650;2023-04-12T08:29:05;10.00;99.90
22996;DHT22;11664;49.774;8.650;2023-04-12T08:31:31;10.00;99.90
22996;DHT22;11664;49.774;8.650;2023-04-12T08:33:57;10.00;99.90
22996;DHT22;11664;49.774;8.650;2023-04-12T08:36:26;10.10;99.90
22996;DHT22;11664;49.774;8.650;2023-04-12T08:38:52;10.10;99.90
22996;DHT22;11664;49.774;8.650;2023-04-12T08:41:20;10.20;99.90
22996;DHT22;11664;49.774;8.650;2023-04-12T08:43:46;10.20;99.90
22996;DHT22;11664;49.774;8.650;2023-04-12T08:46:13;10.20;99.90
22996;DHT22;11664;49.774;8.650;2023-04-12T08:48:40;10.20;99.90
22996;DHT22;11664;49.774;8.650;2023-04-12T08:51:10;10.30;99.90
22996;DHT22;11664;49.774;8.650;2023-04-12T08:53:37;10.30;99.90
22996;DHT22;11664;49.774;8.650;2023-04-12T08:56:05;10.40;99.90
22996;DHT22;11664;49.774;8.650;2023-04-12T08:58:32;10.40;99.90
22996;DHT22;11664;49.774;8.650;2023-04-12T09:00:58;10.40;99.90
22996;DHT22;11664;49.774;8.650;2023-04-12T09:03:24;10.50;99.90
22996;DHT22;11664;49.774;8.650;2023-04-12T09:05:50;10.50;99.90
22996;DHT22;11664;49.774;8.650;2023-04-12T09:08:16;10.50;99.90
22996;DHT22;11664;49.774;8.650;2023-04-12T09:10:41;10.60;99.90
22996;DHT22;11664;49.774;8.650;2023-04-12T09:13:08;10.70;99.90
22996;DHT22;11664;49.774;8.650;2023-04-12T09:15:34;10.70;99.90
22996;DHT22;11664;49.774;8.650;2023-04-12T09:18:10;10.80;99.90
22996;DHT22;11664;49.774;8.650;2023-04-12T09:20:38;10.80;99.90
22996;DHT22;11664;49.774;8.650;2023-04-12T09:23:21;10.90;99.90
22996;DHT22;11664;49.774;8.650;2023-04-12T09:25:48;10.90;99.90
22996;DHT22;11664;49.774;8.650;2023-04-12T09:30:47;10.80;99.90
22996;DHT22;11664;49.774;8.650;2023-04-12T09:33:35;10.90;99.90
22996;DHT22;11664;49.774;8.650;2023-04-12T09:36:03;10.90;99.90
22996;DHT22;11664;49.774;8.650;2023-04-12T09:38:30;11.00;99.90
22996;DHT22;11664;49.774;8.650;2023-04-12T09:40:55;11.00;99.90
22996;DHT22;11664;49.774;8.650;2023-04-12T09:43:37;11.10;99.90
22996;DHT22;11664;49.774;8.650;2023-04-12T09:46:11;11.10;99.90
22996;DHT22;11664;49.774;8.650;2023-04-12T09:48:48;11.20;99.90
22996;DHT22;11664;49.774;8.650;2023-04-12T09:51:32;11.20;99.90
22996;DHT22;11664;49.774;8.650;2023-04-12T09:54:01;11.30;99.90
22996;DHT22;11664;49.774;8.650;2023-04-12T09:56:32;11.30;99.90
22996;DHT22;11664;49.774;8.650;2023-04-12T09:59:03;11.20;99.90
22996;DHT22;11664;49.774;8.650;2023-04-12T10:01:33;11.10;99.90
22996;DHT22;11664;49.774;8.650;2023-04-12T10:04:00;11.10;99.90
22996;DHT22;11664;49.774;8.650;2023-04-12T10:06:26;11.10;99.90
22996;DHT22;11664;49.774;8.650;2023-04-12T10:08:52;11.10;99.90
22996;DHT22;11664;49.774;8.650;2023-04-12T10:11:18;11.10;99.90
22996;DHT22;11664;49.774;8.650;2023-04-12T10:13:44;11.10;99.90
22996;DHT22;11664;49.774;8.650;2023-04-12T10:16:10;11.10;99.90
22996;DHT22;11664;49.774;8.650;2023-04-12T10:18:38;11.20;99.90
22996;DHT22;11664;49.774;8.650;2023-04-12T10:21:04;11.20;99.90
22996;DHT22;11664;49.774;8.650;2023-04-12T10:23:31;11.20;99.90
22996;DHT22;11664;49.774;8.650;2023-04-12T10:25:58;11.30;99.90
22996;DHT22;11664;49.774;8.650;2023-04-12T10:28:24;11.30;99.90
22996;DHT22;11664;49.774;8.650;2023-04-12T10:30:49;11.30;99.90
22996;DHT22;11664;49.774;8.650;2023-04-12T10:33:23;11.40;99.90
22996;DHT22;11664;49.774;8.650;2023-04-12T10:35:58;11.40;99.90
22996;DHT22;11664;49.774;8.650;2023-04-12T10:38:26;11.40;99.90
22996;DHT22;11664;49.774;8.650;2023-04-12T10:41:16;11.50;99.90
22996;DHT22;11664;49.774;8.650;2023-04-12T10:43:51;11.60;99.90
22996;DHT22;11664;49.774;8.650;2023-04-12T10:49:13;12.00;99.90
22996;DHT22;11664;49.774;8.650;2023-04-12T10:56:56;13.10;99.90
22996;DHT22;11664;49.774;8.650;2023-04-12T10:59:22;13.40;99.90
22996;DHT22;11664;49.774;8.650;2023-04-12T11:04:31;14.10;99.90
22996;DHT22;11664;49.774;8.650;2023-04-12T11:07:09;13.90;99.90
22996;DHT22;11664;49.774;8.650;2023-04-12T11:09:36;13.80;99.90
22996;DHT22;11664;49.774;8.650;2023-04-12T11:14:37;13.30;99.90
22996;DHT22;11664;49.774;8.650;2023-04-12T11:19:40;13.20;99.90
22996;DHT22;11664;49.774;8.650;2023-04-12T11:22:11;13.40;99.90
22996;DHT22;11664;49.774;8.650;2023-04-12T11:24:45;13.40;99.90
22996;DHT22;11664;49.774;8.650;2023-04-12T11:27:11;13.30;99.90
22996;DHT22;11664;49.774;8.650;2023-04-12T11:29:37;13.10;99.90
22996;DHT22;11664;49.774;8.650;2023-04-12T11:32:08;12.90;99.90
22996;DHT22;11664;49.774;8.650;2023-04-12T11:34:35;12.80;99.90
22996;DHT22;11664;49.774;8.650;2023-04-12T11:37:02;12.80;99.90
22996;DHT22;11664;49.774;8.650;2023-04-12T11:39:30;12.90;99.90
22996;DHT22;11664;49.774;8.650;2023-04-12T11:41:56;12.90;99.90
22996;DHT22;11664;49.774;8.650;2023-04-12T11:44:23;12.90;99.90
22996;DHT22;11664;49.774;8.650;2023-04-12T11:46:49;13.00;99.90
22996;DHT22;11664;49.774;8.650;2023-04-12T11:49:15;13.00;99.90
22996;DHT22;11664;49.774;8.650;2023-04-12T11:51:42;13.10;99.90
22996;DHT22;11664;49.774;8.650;2023-04-12T11:54:07;13.20;99.90
22996;DHT22;11664;49.774;8.650;2023-04-12T11:56:33;13.30;99.90
22996;DHT22;11664;49.774;8.650;2023-04-12T11:58:58;13.40;99.90
22996;DHT22;11664;49.774;8.650;2023-04-12T12:01:24;13.60;99.90
22996;DHT22;11664;49.774;8.650;2023-04-12T12:03:52;13.60;99.90
22996;DHT22;11664;49.774;8.650;2023-04-12T12:06:18;13.70;99.90
22996;DHT22;11664;49.774;8.650;2023-04-12T12:08:44;13.80;99.90
22996;DHT22;11664;49.774;8.650;2023-04-12T12:11:11;14.30;99.90
22996;DHT22;11664;49.774;8.650;2023-04-12T12:13:53;14.60;99.90
22996;DHT22;11664;49.774;8.650;2023-04-12T12:16:23;14.70;99.90
22996;DHT22;11664;49.774;8.650;2023-04-12T12:18:49;14.50;99.90
22996;DHT22;11664;49.774;8.650;2023-04-12T12:21:15;14.40;99.90
22996;DHT22;11664;49.774;8.650;2023-04-12T12:23:42;14.20;99.90
22996;DHT22;11664;49.774;8.650;2023-04-12T12:26:08;13.90;99.90
22996;DHT22;11664;49.774;8.650;2023-04-12T12:28:37;13.80;99.90
22996;DHT22;11664;49.774;8.650;2023-04-12T12:31:09;13.70;99.90
22996;DHT22;11664;49.774;8.650;2023-04-12T12:33:40;13.60;99.90
22996;DHT22;11664;49.774;8.650;2023-04-12T12:36:07;13.60;99.90
22996;DHT22;11664;49.774;8.650;2023-04-12T12:38:39;13.50;99.90
22996;DHT22;11664;49.774;8.650;2023-04-12T12:41:15;13.50;99.90
22996;DHT22;11664;49.774;8.650;2023-04-12T12:43:59;13.70;99.90
22996;DHT22;11664;49.774;8.650;2023-04-12T12:46:25;13.70;99.90
22996;DHT22;11664;49.774;8.650;2023-04-12T12:48:51;13.70;99.90
22996;DHT22;11664;49.774;8.650;2023-04-12T12:51:16;13.50;99.90
22996;DHT22;11664;49.774;8.650;2023-04-12T12:53:44;13.40;99.90
22996;DHT22;11664;49.774;8.650;2023-04-12T12:56:10;13.20;99.90
22996;DHT22;11664;49.774;8.650;2023-04-12T12:58:36;13.00;99.90
22996;DHT22;11664;49.774;8.650;2023-04-12T13:01:03;12.90;99.90
22996;DHT22;11664;49.774;8.650;2023-04-12T13:03:29;12.90;99.90
22996;DHT22;11664;49.774;8.650;2023-04-12T13:05:55;12.80;99.90
22996;DHT22;11664;49.774;8.650;2023-04-12T13:08:24;12.80;99.90
22996;DHT22;11664;49.774;8.650;2023-04-12T13:10:50;12.70;99.90
22996;DHT22;11664;49.774;8.650;2023-04-12T13:13:17;12.70;99.90
22996;DHT22;11664;49.774;8.650;2023-04-12T13:15:42;12.70;99.90
22996;DHT22;11664;49.774;8.650;2023-04-12T13:18:11;12.70;99.90
22996;DHT22;11664;49.774;8.650;2023-04-12T13:20:39;12.70;99.90
22996;DHT22;11664;49.774;8.650;2023-04-12T13:23:05;12.70;99.90
22996;DHT22;11664;49.774;8.650;2023-04-12T13:25:31;12.70;99.90
22996;DHT22;11664;49.774;8.650;2023-04-12T13:27:57;12.70;99.90
22996;DHT22;11664;49.774;8.650;2023-04-12T13:30:22;12.60;99.90
22996;DHT22;11664;49.774;8.650;2023-04-12T13:32:48;12.60;99.90
22996;DHT22;11664;49.774;8.650;2023-04-12T13:35:14;12.40;99.90
22996;DHT22;11664;49.774;8.650;2023-04-12T13:37:39;12.40;99.90
22996;DHT22;11664;49.774;8.650;2023-04-12T13:40:06;12.40;99.90
22996;DHT22;11664;49.774;8.650;2023-04-12T13:42:32;12.40;99.90
22996;DHT22;11664;49.774;8.650;2023-04-12T13:44:57;12.30;99.90
22996;DHT22;11664;49.774;8.650;2023-04-12T13:47:23;12.40;99.90
22996;DHT22;11664;49.774;8.650;2023-04-12T13:49:49;12.50;99.90
22996;DHT22;11664;49.774;8.650;2023-04-12T13:52:14;12.50;99.90
22996;DHT22;11664;49.774;8.650;2023-04-12T13:54:40;12.50;99.90
22996;DHT22;11664;49.774;8.650;2023-04-12T13:57:07;12.40;99.90
22996;DHT22;11664;49.774;8.650;2023-04-12T13:59:33;12.30;99.90
22996;DHT22;11664;49.774;8.650;2023-04-12T14:01:59;12.30;99.90
22996;DHT22;11664;49.774;8.650;2023-04-12T14:04:29;12.30;99.90
22996;DHT22;11664;49.774;8.650;2023-04-12T14:06:55;12.40;99.90
22996;DHT22;11664;49.774;8.650;2023-04-12T14:09:23;12.50;99.90
22996;DHT22;11664;49.774;8.650;2023-04-12T14:11:50;12.60;99.90
22996;DHT22;11664;49.774;8.650;2023-04-12T14:14:15;12.70;99.90
22996;DHT22;11664;49.774;8.650;2023-04-12T14:16:41;12.80;99.90
22996;DHT22;11664;49.774;8.650;2023-04-12T14:19:07;12.90;99.90
22996;DHT22;11664;49.774;8.650;2023-04-12T14:21:33;12.90;99.90
22996;DHT22;11664;49.774;8.650;2023-04-12T14:23:59;12.90;99.90
22996;DHT22;11664;49.774;8.650;2023-04-12T14:26:25;12.90;99.90
22996;DHT22;11664;49.774;8.650;2023-04-12T14:28:50;12.90;99.90
22996;DHT22;11664;49.774;8.650;2023-04-12T14:31:16;12.90;99.90
22996;DHT22;11664;49.774;8.650;2023-04-12T14:33:41;12.80;99.90
22996;DHT22;11664;49.774;8.650;2023-04-12T14:36:07;12.80;99.90
22996;DHT22;11664;49.774;8.650;2023-04-12T14:38:36;12.70;99.90
22996;DHT22;11664;49.774;8.650;2023-04-12T14:41:06;12.60;99.90
22996;DHT22;11664;49.774;8.650;2023-04-12T14:43:35;12.60;99.90
22996;DHT22;11664;49.774;8.650;2023-04-12T14:46:01;12.50;99.90
22996;DHT22;11664;49.774;8.650;2023-04-12T14:48:26;12.50;99.90
22996;DHT22;11664;49.774;8.650;2023-04-12T14:50:52;12.50;99.90
22996;DHT22;11664;49.774;8.650;2023-04-12T14:53:19;12.40;99.90
22996;DHT22;11664;49.774;8.650;2023-04-12T14:55:46;12.40;99.90
22996;DHT22;11664;49.774;8.650;2023-04-12T14:58:14;12.50;99.90
22996;DHT22;11664;49.774;8.650;2023-04-12T15:00:40;12.40;99.90
22996;DHT22;11664;49.774;8.650;2023-04-12T15:03:06;12.40;99.90
22996;DHT22;11664;49.774;8.650;2023-04-12T15:05:33;12.40;99.90
22996;DHT22;11664;49.774;8.650;2023-04-12T15:07:58;12.40;99.90
22996;DHT22;11664;49.774;8.650;2023-04-12T15:10:24;12.40;99.90
22996;DHT22;11664;49.774;8.650;2023-04-12T15:12:50;12.40;99.90
22996;DHT22;11664;49.774;8.650;2023-04-12T15:15:15;12.30;99.90
22996;DHT22;11664;49.774;8.650;2023-04-12T15:17:41;12.40;99.90
22996;DHT22;11664;49.774;8.650;2023-04-12T15:20:07;12.40;99.90
22996;DHT22;11664;49.774;8.650;2023-04-12T15:22:37;12.40;99.90
22996;DHT22;11664;49.774;8.650;2023-04-12T15:25:03;12.40;99.90
22996;DHT22;11664;49.774;8.650;2023-04-12T15:27:30;12.50;99.90
22996;DHT22;11664;49.774;8.650;2023-04-12T15:29:59;12.50;99.90
22996;DHT22;11664;49.774;8.650;2023-04-12T15:32:28;12.50;99.90
22996;DHT22;11664;49.774;8.650;2023-04-12T15:34:54;12.50;99.90
22996;DHT22;11664;49.774;8.650;2023-04-12T15:37:21;12.50;99.90
22996;DHT22;11664;49.774;8.650;2023-04-12T15:39:48;12.50;99.90
22996;DHT22;11664;49.774;8.650;2023-04-12T15:42:14;12.50;99.90
22996;DHT22;11664;49.774;8.650;2023-04-12T15:44:40;12.50;99.90
22996;DHT22;11664;49.774;8.650;2023-04-12T15:47:06;12.50;99.90
22996;DHT22;11664;49.774;8.650;2023-04-12T15:49:32;12.40;99.90
22996;DHT22;11664;49.774;8.650;2023-04-12T15:51:57;12.40;99.90
22996;DHT22;11664;49.774;8.650;2023-04-12T15:54:23;12.40;99.90
22996;DHT22;11664;49.774;8.650;2023-04-12T15:56:49;12.40;99.90
22996;DHT22;11664;49.774;8.650;2023-04-12T15:59:15;12.50;99.90
22996;DHT22;11664;49.774;8.650;2023-04-12T16:01:43;12.60;99.90